Time;durP1;ratioP1;P1;durP2;ratioP2;P2;SDS_P1;SDS_P2;PMS_P1;PMS_P2;Temp;Humidity;BMP_temperature;BMP_pressure;BME280_temperature;BME280_humidity;BME280_pressure;Samples;Min_cycle;Max_cycle;Signal;HPM_P1;HPM_P2
2023/05/19 00:02:04;;;;;;;;;;;;;;;20.13;61.33;100506.72;4437940;32;34157;-78
2023/05/19 00:04:32;;;;;;;;;;;;;;;20.26;60.52;100494.63;4418068;32;33287;-78
2023/05/19 00:07:00;;;;;;;;;;;;;;;20.30;60.18;100500.84;4444255;32;34218;-78
2023/05/19 00:09:28;;;;;;;;;;;;;;;19.72;61.33;100509.50;4445567;32;34129;-79
2023/05/19 00:11:55;;;;;;;;;;;;;;;20.40;58.98;100497.50;4451190;32;34455;-78
2023/05/19 00:14:23;;;;;;;;;;;;;;;20.99;57.02;100494.00;4444188;32;33629;-78
2023/05/19 00:16:50;;;;;;;;;;;;;;;20.91;56.75;100495.66;4430131;32;33408;-78
2023/05/19 00:19:18;;;;;;;;;;;;;;;20.51;57.44;100497.66;4452786;32;34153;-78
2023/05/19 00:21:45;;;;;;;;;;;;;;;20.94;56.38;100493.94;4439557;32;35135;-78
2023/05/19 00:24:13;;;;;;;;;;;;;;;20.53;57.27;100499.47;4453351;32;33788;-79
2023/05/19 00:26:40;;;;;;;;;;;;;;;20.69;56.76;100494.47;4453309;32;34211;-78
2023/05/19 00:29:08;;;;;;;;;;;;;;;20.16;58.23;100500.63;4453254;32;34103;-78
2023/05/19 00:31:35;;;;;;;;;;;;;;;20.40;57.48;100497.50;4451085;32;34373;-78
2023/05/19 00:34:03;;;;;;;;;;;;;;;20.28;57.77;100494.66;4442641;32;33368;-78
2023/05/19 00:36:30;;;;;;;;;;;;;;;20.51;56.62;100497.66;4446469;32;34350;-78
2023/05/19 00:38:57;;;;;;;;;;;;;;;20.30;57.24;100492.94;4448333;32;34373;-78
2023/05/19 00:41:25;;;;;;;;;;;;;;;20.46;56.77;100484.44;4446731;32;34106;-78
2023/05/19 00:43:52;;;;;;;;;;;;;;;20.85;55.44;100483.28;4452155;32;33296;-78
2023/05/19 00:46:20;;;;;;;;;;;;;;;20.63;55.80;100497.91;4428881;32;33998;-78
2023/05/19 00:48:47;;;;;;;;;;;;;;;20.61;55.77;100487.34;4451102;32;33395;-78
2023/05/19 00:51:15;;;;;;;;;;;;;;;20.94;54.79;100493.06;4444369;32;35197;-78
2023/05/19 00:53:47;;;;;;;;;;;;;;;20.51;55.77;100495.91;4435289;32;33616;-78
2023/05/19 00:56:15;;;;;;;;;;;;;;;20.64;55.54;100497.03;4449468;32;34024;-78
2023/05/19 00:58:42;;;;;;;;;;;;;;;20.69;55.13;100492.72;4430566;32;33559;-78
2023/05/19 01:01:10;;;;;;;;;;;;;;;21.06;53.94;100489.72;4442107;32;34342;-78
2023/05/19 01:03:39;;;;;;;;;;;;;;;20.57;55.41;100492.50;4450485;32;33385;-78
2023/05/19 01:06:07;;;;;;;;;;;;;;;20.96;54.45;100489.59;4426524;32;34598;-78
2023/05/19 01:08:37;;;;;;;;;;;;;;;20.73;54.82;100493.66;4444922;32;34008;-77
2023/05/19 01:11:05;;;;;;;;;;;;;;;20.62;55.07;100486.47;4444723;32;35198;-78
2023/05/19 01:13:33;;;;;;;;;;;;;;;20.37;55.81;100484.28;4443834;32;34360;-78
2023/05/19 01:16:05;;;;;;;;;;;;;;;19.92;57.47;100491.44;4450075;32;34829;-78
2023/05/19 01:18:45;;;;;;;;;;;;;;;19.45;59.07;100494.94;4442208;32;33735;-78
2023/05/19 01:21:15;;;;;;;;;;;;;;;19.47;59.26;100496.69;4435640;32;36432;-78
2023/05/19 01:24:07;;;;;;;;;;;;;;;19.31;59.63;100495.50;4450896;32;33484;-79
2023/05/19 01:26:49;;;;;;;;;;;;;;;18.75;61.56;100498.63;4452494;32;33920;-79
2023/05/19 01:29:35;;;;;;;;;;;;;;;16.77;67.99;100502.03;4419612;32;33619;-77
2023/05/19 01:32:03;;;;;;;;;;;;;;;16.88;68.50;100504.19;4443772;32;34904;-79
2023/05/19 01:34:30;;;;;;;;;;;;;;;16.65;69.06;100498.19;4424104;32;33590;-79
2023/05/19 01:36:59;;;;;;;;;;;;;;;16.37;70.63;100512.09;4438215;32;34604;-78
2023/05/19 01:39:26;;;;;;;;;;;;;;;15.78;73.12;100514.50;4438458;32;34783;-80
2023/05/19 01:41:54;;;;;;;;;;;;;;;15.67;73.87;100510.56;4450264;32;34367;-80
2023/05/19 01:44:22;;;;;;;;;;;;;;;17.73;65.53;100506.59;4428188;32;33152;-80
2023/05/19 01:46:49;;;;;;;;;;;;;;;19.04;60.43;100494.97;4435041;32;34201;-79
2023/05/19 01:49:16;;;;;;;;;;;;;;;19.24;59.95;100500.63;4419717;32;35125;-78
2023/05/19 01:51:44;;;;;;;;;;;;;;;19.98;57.67;100481.03;4424994;32;34988;-78
2023/05/19 01:54:11;;;;;;;;;;;;;;;20.30;56.64;100488.59;4442505;32;33662;-79
2023/05/19 01:56:42;;;;;;;;;;;;;;;20.31;56.51;100486.84;4432272;32;33379;-78
2023/05/19 01:59:30;;;;;;;;;;;;;;;19.94;57.66;100494.09;4437286;32;32777;-79
2023/05/19 02:01:57;;;;;;;;;;;;;;;20.18;56.90;100486.62;4440652;32;33675;-79
2023/05/19 02:04:45;;;;;;;;;;;;;;;20.16;56.74;100493.59;4429369;32;34154;-79
2023/05/19 02:07:14;;;;;;;;;;;;;;;20.08;56.78;100497.84;4438584;32;34059;-79
2023/05/19 02:09:45;;;;;;;;;;;;;;;19.21;58.88;100499.69;4428534;32;33589;-79
2023/05/19 02:12:27;;;;;;;;;;;;;;;19.05;59.97;100499.34;4437915;32;35032;-78
2023/05/19 02:14:55;;;;;;;;;;;;;;;19.50;58.71;100502.00;4446449;32;34121;-79
2023/05/19 02:17:22;;;;;;;;;;;;;;;18.67;61.06;100493.22;4440058;32;34654;-78
2023/05/19 02:19:50;;;;;;;;;;;;;;;19.10;60.05;100498.56;4439626;32;33928;-79
2023/05/19 02:22:17;;;;;;;;;;;;;;;19.31;59.37;100496.38;4435441;32;34039;-79
2023/05/19 02:24:50;;;;;;;;;;;;;;;19.50;58.83;100492.38;4428127;32;33383;-79
2023/05/19 02:27:17;;;;;;;;;;;;;;;19.67;58.25;100495.34;4443794;32;34835;-78
2023/05/19 02:29:45;;;;;;;;;;;;;;;18.99;60.08;100499.22;4431573;32;33160;-78
2023/05/19 02:32:12;;;;;;;;;;;;;;;18.33;62.23;100488.91;4445625;32;34010;-79
2023/05/19 02:34:44;;;;;;;;;;;;;;;18.49;61.67;100495.44;4452598;32;32985;-79
2023/05/19 02:37:15;;;;;;;;;;;;;;;19.09;60.12;100494.19;4452238;32;33910;-78
2023/05/19 02:39:42;;;;;;;;;;;;;;;20.16;56.43;100483.06;4445689;32;32929;-79
2023/05/19 02:42:11;;;;;;;;;;;;;;;20.71;54.60;100492.75;4451165;32;34444;-79
2023/05/19 02:44:38;;;;;;;;;;;;;;;20.73;54.52;100483.12;4450398;32;34357;-78
2023/05/19 02:47:05;;;;;;;;;;;;;;;20.50;55.32;100482.75;4444794;32;33937;-78
2023/05/19 02:49:35;;;;;;;;;;;;;;;20.96;54.02;100480.81;4450221;32;34101;-79
2023/05/19 02:52:03;;;;;;;;;;;;;;;21.58;51.70;100479.81;4447334;32;34215;-78
2023/05/19 02:54:31;;;;;;;;;;;;;;;21.17;52.57;100474.91;4413081;32;33084;-78
2023/05/19 02:56:58;;;;;;;;;;;;;;;21.09;52.82;100487.09;4434136;32;33995;-78
2023/05/19 02:59:26;;;;;;;;;;;;;;;20.47;54.56;100486.19;4431895;32;33807;-79
2023/05/19 03:01:54;;;;;;;;;;;;;;;21.09;52.80;100489.75;4433832;32;35191;-79
2023/05/19 03:04:21;;;;;;;;;;;;;;;21.44;51.58;100492.84;4422490;32;32505;-78
2023/05/19 03:06:49;;;;;;;;;;;;;;;21.38;51.80;100493.63;4434466;32;33758;-79
2023/05/19 03:09:17;;;;;;;;;;;;;;;21.16;52.30;100495.09;4418442;32;33695;-78
2023/05/19 03:11:45;;;;;;;;;;;;;;;20.04;55.07;100493.41;4421653;32;34520;-79
2023/05/19 03:14:12;;;;;;;;;;;;;;;18.11;62.06;100504.09;4434454;32;33896;-78
2023/05/19 03:16:40;;;;;;;;;;;;;;;17.47;64.82;100511.97;4435243;32;33992;-78
2023/05/19 03:19:08;;;;;;;;;;;;;;;18.04;62.79;100512.66;4433809;32;33995;-78
2023/05/19 03:21:36;;;;;;;;;;;;;;;17.31;65.45;100512.41;4435893;32;35110;-79
2023/05/19 03:24:04;;;;;;;;;;;;;;;17.32;65.79;100508.06;4436144;32;33424;-78
2023/05/19 03:26:33;;;;;;;;;;;;;;;16.91;67.02;100511.22;4437521;32;33888;-79
2023/05/19 03:29:00;;;;;;;;;;;;;;;16.05;71.05;100511.03;4437647;32;33694;-79
2023/05/19 03:31:31;;;;;;;;;;;;;;;15.43;74.37;100511.47;4437656;32;33741;-79
2023/05/19 03:33:58;;;;;;;;;;;;;;;16.06;71.87;100510.22;4436149;32;33839;-79
2023/05/19 03:36:30;;;;;;;;;;;;;;;15.68;73.24;100517.56;4432611;32;34018;-79
2023/05/19 03:38:59;;;;;;;;;;;;;;;15.37;74.69;100511.22;4419065;32;32645;-79
2023/05/19 03:41:26;;;;;;;;;;;;;;;16.23;71.90;100508.16;4434692;32;35006;-79
2023/05/19 03:43:54;;;;;;;;;;;;;;;16.51;70.42;100504.69;4437668;32;33714;-79
2023/05/19 03:46:22;;;;;;;;;;;;;;;16.31;70.96;100502.34;4434885;32;34545;-79
2023/05/19 03:48:50;;;;;;;;;;;;;;;16.16;71.96;100507.06;4430800;32;33941;-78
2023/05/19 03:51:18;;;;;;;;;;;;;;;16.82;69.52;100508.31;4434477;32;34480;-79
2023/05/19 03:53:45;;;;;;;;;;;;;;;16.88;68.94;100508.50;4417284;32;33021;-78
2023/05/19 03:56:13;;;;;;;;;;;;;;;17.13;68.15;100511.84;4427730;32;34105;-79
2023/05/19 03:58:43;;;;;;;;;;;;;;;17.13;67.99;100502.25;4448002;32;34877;-80
2023/05/19 04:01:11;;;;;;;;;;;;;;;16.97;68.56;100507.91;4452609;32;34532;-79
2023/05/19 04:03:38;;;;;;;;;;;;;;;17.36;67.25;100504.66;4452668;32;33222;-79
2023/05/19 04:06:07;;;;;;;;;;;;;;;17.55;66.53;100517.44;4453252;32;34711;-80
2023/05/19 04:08:35;;;;;;;;;;;;;;;17.45;66.87;100516.28;4439014;32;34047;-79
2023/05/19 04:11:02;;;;;;;;;;;;;;;17.68;66.28;100521.28;4450595;32;34484;-78
2023/05/19 04:13:33;;;;;;;;;;;;;;;16.50;70.42;100508.19;4453276;32;33897;-79
2023/05/19 04:16:00;;;;;;;;;;;;;;;15.49;74.55;100516.00;4453197;32;34191;-79
2023/05/19 04:18:28;;;;;;;;;;;;;;;16.56;71.35;100513.59;4453416;32;33775;-79
2023/05/19 04:20:55;;;;;;;;;;;;;;;17.12;68.50;100525.81;4450155;32;34472;-79
2023/05/19 04:23:22;;;;;;;;;;;;;;;16.69;70.31;100526.22;4453275;32;34006;-79
2023/05/19 04:25:50;;;;;;;;;;;;;;;16.31;72.25;100523.25;4453245;32;33783;-78
2023/05/19 04:28:18;;;;;;;;;;;;;;;16.71;71.03;100524.53;4438971;32;34151;-79
2023/05/19 04:30:45;;;;;;;;;;;;;;;15.61;75.52;100536.47;4451417;32;34315;-78
2023/05/19 04:33:13;;;;;;;;;;;;;;;16.05;74.29;100535.47;4451292;32;33610;-79
2023/05/19 04:35:42;;;;;;;;;;;;;;;16.58;71.68;100532.84;4451302;32;34165;-79
2023/05/19 04:38:10;;;;;;;;;;;;;;;16.08;73.57;100539.88;4452814;32;34162;-79
2023/05/19 04:40:41;;;;;;;;;;;;;;;16.81;70.77;100540.53;4438121;32;35095;-79
2023/05/19 04:43:08;;;;;;;;;;;;;;;17.18;69.29;100542.56;4452539;32;33169;-79
2023/05/19 04:45:36;;;;;;;;;;;;;;;17.00;70.40;100542.91;4437804;32;33459;-79
2023/05/19 04:48:06;;;;;;;;;;;;;;;16.87;71.07;100540.75;4438705;32;33719;-78
2023/05/19 04:50:37;;;;;;;;;;;;;;;17.06;71.01;100553.56;4448913;32;33771;-79
2023/05/19 04:53:05;;;;;;;;;;;;;;;16.92;70.98;100549.66;4449639;32;33643;-78
2023/05/19 04:55:33;;;;;;;;;;;;;;;17.06;70.92;100544.84;4451132;32;33804;-78
2023/05/19 04:58:01;;;;;;;;;;;;;;;17.56;69.44;100550.66;4443451;32;35129;-79
2023/05/19 05:00:29;;;;;;;;;;;;;;;18.52;65.53;100554.06;4444722;32;34365;-79
2023/05/19 05:02:57;;;;;;;;;;;;;;;20.96;57.75;100539.63;4441536;32;33504;-79
2023/05/19 05:05:25;;;;;;;;;;;;;;;20.96;56.13;100539.63;4438215;32;34806;-79
2023/05/19 05:07:52;;;;;;;;;;;;;;;18.73;63.35;100543.22;4445403;32;34332;-80
2023/05/19 05:10:20;;;;;;;;;;;;;;;16.48;73.55;100549.06;4432835;32;35079;-79
2023/05/19 05:12:48;;;;;;;;;;;;;;;15.85;77.16;100558.25;4445029;32;33250;-79
2023/05/19 05:15:16;;;;;;;;;;;;;;;17.60;71.26;100546.41;4420735;32;34257;-79
2023/05/19 05:17:43;;;;;;;;;;;;;;;19.48;61.67;100554.53;4449795;32;34045;-79
2023/05/19 05:20:11;;;;;;;;;;;;;;;17.24;71.76;100557.56;4453115;32;34463;-79
2023/05/19 05:22:39;;;;;;;;;;;;;;;18.46;65.82;100559.19;4444828;32;33343;-79
2023/05/19 05:25:07;;;;;;;;;;;;;;;18.96;64.19;100561.28;4449410;32;33983;-79
2023/05/19 05:27:35;;;;;;;;;;;;;;;21.04;57.62;100558.19;4437096;32;33522;-79
2023/05/19 05:30:03;;;;;;;;;;;;;;;21.63;55.16;100554.56;4434925;32;34763;-79
2023/05/19 05:32:31;;;;;;;;;;;;;;;21.87;54.24;100547.81;4435651;32;34025;-79
2023/05/19 05:35:01;;;;;;;;;;;;;;;18.61;63.57;100561.31;4417442;32;31985;-79
2023/05/19 05:37:30;;;;;;;;;;;;;;;18.27;65.28;100569.22;4442551;32;33959;-79
2023/05/19 05:39:57;;;;;;;;;;;;;;;19.72;61.03;100567.31;4431092;32;33186;-79
2023/05/19 05:42:24;;;;;;;;;;;;;;;17.80;67.79;100571.41;4441706;32;34291;-79
2023/05/19 05:44:55;;;;;;;;;;;;;;;19.10;61.47;100559.84;4448706;32;34269;-79
2023/05/19 05:47:22;;;;;;;;;;;;;;;20.59;56.62;100554.88;4443026;32;34343;-79
2023/05/19 05:49:49;;;;;;;;;;;;;;;21.04;54.81;100562.56;4445140;32;34615;-79
2023/05/19 05:52:20;;;;;;;;;;;;;;;20.75;56.08;100560.38;4444727;32;33091;-79
2023/05/19 05:54:47;;;;;;;;;;;;;;;20.01;59.19;100564.34;4419864;32;34016;-79
2023/05/19 05:57:15;;;;;;;;;;;;;;;18.06;66.79;100568.66;4454773;32;34905;-79
2023/05/19 05:59:45;;;;;;;;;;;;;;;17.40;69.14;100567.69;4439348;32;34151;-79
2023/05/19 06:02:13;;;;;;;;;;;;;;;17.82;68.34;100567.09;4424631;32;33204;-80
2023/05/19 06:04:41;;;;;;;;;;;;;;;16.69;72.76;100560.22;4432617;32;33984;-79
2023/05/19 06:07:08;;;;;;;;;;;;;;;16.52;75.26;100577.97;4440780;32;34125;-79
2023/05/19 06:09:36;;;;;;;;;;;;;;;19.51;63.85;100572.09;4451799;32;34667;-79
2023/05/19 06:12:05;;;;;;;;;;;;;;;21.15;57.44;100571.47;4437663;32;33731;-80
2023/05/19 06:14:32;;;;;;;;;;;;;;;17.87;68.36;100578.63;4446352;32;33992;-79
2023/05/19 06:17:03;;;;;;;;;;;;;;;17.65;70.12;100584.06;4448157;32;34066;-80
2023/05/19 06:19:30;;;;;;;;;;;;;;;16.78;73.45;100585.78;4440634;32;34283;-79
2023/05/19 06:21:58;;;;;;;;;;;;;;;19.51;63.48;100578.25;4452089;32;33504;-79
2023/05/19 06:24:25;;;;;;;;;;;;;;;20.55;60.49;100568.81;4454328;32;34326;-79
2023/05/19 06:26:53;;;;;;;;;;;;;;;21.45;56.33;100578.06;4444922;32;34140;-80
2023/05/19 06:29:20;;;;;;;;;;;;;;;22.27;54.25;100575.50;4443958;32;34430;-79
2023/05/19 06:31:47;;;;;;;;;;;;;;;22.66;52.88;100578.47;4448802;32;33119;-80
2023/05/19 06:34:16;;;;;;;;;;;;;;;22.43;53.03;100579.16;4442834;32;33958;-79
2023/05/19 06:36:44;;;;;;;;;;;;;;;21.06;58.05;100579.28;4444598;32;34157;-80
2023/05/19 06:39:11;;;;;;;;;;;;;;;20.39;59.30;100583.44;4438362;32;33943;-79
2023/05/19 06:41:39;;;;;;;;;;;;;;;21.95;54.28;100578.66;4442603;32;33586;-80
2023/05/19 06:44:09;;;;;;;;;;;;;;;21.72;55.88;100574.88;4451724;32;34159;-79
2023/05/19 06:46:37;;;;;;;;;;;;;;;22.10;54.07;100585.87;4451711;32;33070;-80
2023/05/19 06:49:04;;;;;;;;;;;;;;;18.56;65.47;100603.19;4449701;32;33033;-79
2023/05/19 06:51:32;;;;;;;;;;;;;;;20.24;60.38;100609.47;4423105;32;874913;-80
2023/05/19 06:53:59;;;;;;;;;;;;;;;19.23;63.73;100609.16;4444478;32;33706;-79
2023/05/19 06:56:27;;;;;;;;;;;;;;;19.30;61.58;100604.94;4449847;32;33704;-79
2023/05/19 06:58:55;;;;;;;;;;;;;;;20.00;58.91;100612.53;4442527;32;34816;-80
2023/05/19 07:01:25;;;;;;;;;;;;;;;23.27;49.65;100610.59;4432738;32;31523;-80
2023/05/19 07:03:53;;;;;;;;;;;;;;;24.50;46.13;100600.44;4454478;32;34729;-80
2023/05/19 07:06:21;;;;;;;;;;;;;;;24.48;46.78;100601.34;4454523;32;34230;-80
2023/05/19 07:08:49;;;;;;;;;;;;;;;22.95;49.16;100603.34;4450238;32;33177;-80
2023/05/19 07:11:17;;;;;;;;;;;;;;;21.11;53.13;100603.91;4439993;32;32853;-79
2023/05/19 07:13:46;;;;;;;;;;;;;;;22.45;51.30;100606.47;4437925;32;34337;-80
2023/05/19 07:16:14;;;;;;;4.68;2.83;;;;;;;24.66;45.44;100600.47;4442827;32;34054;-80
2023/05/19 07:18:43;;;;;;;;;;;;;;;24.79;46.46;100599.59;4438594;32;34142;-80
2023/05/19 07:21:11;;;;;;;;;;;;;;;22.34;52.36;100601.06;4448638;32;33296;-80
2023/05/19 07:23:39;;;;;;;;;;;;;;;24.64;47.09;100591.66;4448799;32;34790;-80
2023/05/19 07:26:06;;;;;;;;;;;;;;;21.72;54.52;100591.59;4442862;32;32892;-78
2023/05/19 07:28:34;;;;;;;8.77;3.10;;;;;;;23.02;51.19;100593.69;4443365;32;34793;-78
2023/05/19 07:31:01;;;;;;;5.20;2.80;;;;;;;23.72;48.62;100594.94;4442431;32;34322;-78
2023/05/19 07:33:29;;;;;;;;;;;;;;;23.87;47.53;100597.69;4433663;32;34025;-78
2023/05/19 07:35:56;;;;;;;;;;;;;;;24.11;46.62;100582.75;4438774;32;34925;-78
2023/05/19 07:38:24;;;;;;;;;;;;;;;21.47;53.75;100592.16;4443339;32;34357;-77
2023/05/19 07:40:51;;;;;;;;;;;;;;;20.04;60.45;100598.59;4439807;32;33239;-79
2023/05/19 07:43:18;;;;;;;;;;;;;;;20.29;59.86;100596.44;4439265;32;33983;-79
2023/05/19 07:45:46;;;;;;;;;;;;;;;19.58;60.97;100597.66;4438041;32;32792;-79
2023/05/19 07:48:13;;;;;;;;;;;;;;;19.04;63.25;100597.38;4439490;32;33885;-79
2023/05/19 07:50:41;;;;;;;6.20;3.05;;;;;;;18.79;63.70;100600.22;4442222;32;33501;-78
2023/05/19 07:53:08;;;;;;;7.50;4.85;;;;;;;22.14;54.32;100590.28;4445306;32;33820;-79
2023/05/19 07:55:36;;;;;;;8.65;4.60;;;;;;;19.52;62.12;100602.78;4445474;32;33964;-79
2023/05/19 07:58:04;;;;;;;7.47;4.12;;;;;;;20.88;60.77;100587.75;4439059;32;34056;-81
2023/05/19 08:00:31;;;;;;;7.62;4.43;;;;;;;22.42;55.71;100589.72;4427271;32;33998;-80
2023/05/19 08:03:00;;;;;;;;;;;;;;;23.28;51.90;100579.78;4441307;32;33957;-80
2023/05/19 08:05:28;;;;;;;;;;;;;;;23.98;49.42;100579.19;4441726;32;33781;-83
2023/05/19 08:07:56;;;;;;;5.40;3.28;;;;;;;24.08;49.43;100586.25;4436588;32;34818;-80
2023/05/19 08:10:23;;;;;;;;;;;;;;;23.79;48.86;100574.75;4425558;32;32637;-80
2023/05/19 08:12:51;;;;;;;;;;;;;;;24.23;48.64;100569.53;4431557;32;33032;-80
2023/05/19 08:15:18;;;;;;;;;;;;;;;21.82;55.66;100570.59;4432161;32;35067;-81
2023/05/19 08:17:46;;;;;;;;;;;;;;;20.74;58.22;100574.41;4449258;32;34183;-83
2023/05/19 08:20:13;;;;;;;;;;;;;;;22.41;54.19;100573.00;4429809;32;33126;-80
2023/05/19 08:22:40;;;;;;;;;;;;;;;22.05;54.32;100573.50;4451376;32;34173;-81
2023/05/19 08:25:08;;;;;;;;;;;;;;;20.46;60.77;100568.66;4441160;32;34933;-80
2023/05/19 08:27:36;;;;;;;;;;;;;;;23.88;50.82;100569.47;4431443;32;34488;-82
2023/05/19 08:30:03;;;;;;;;;;;;;;;25.39;43.87;100566.81;4439386;32;34466;-79
2023/05/19 08:32:31;;;;;;;;;;;;;;;22.74;52.04;100577.66;4445956;32;33854;-80
2023/05/19 08:34:58;;;;;;;;;;;;;;;23.81;51.53;100567.69;4426303;32;34046;-80
2023/05/19 08:37:25;;;;;;;;;;;;;;;22.86;52.94;100568.94;4421670;32;34418;-81
2023/05/19 08:39:54;;;;;;;;;;;;;;;21.75;54.66;100570.53;4444196;32;33460;-82
2023/05/19 08:42:21;;;;;;;;;;;;;;;22.44;53.11;100564.22;4428886;32;32422;-82
2023/05/19 08:44:48;;;;;;;;;;;;;;;21.19;58.94;100565.41;4442393;32;33697;-81
2023/05/19 08:47:16;;;;;;;;;;;;;;;21.84;56.29;100571.50;4440272;32;34274;-81
2023/05/19 08:49:44;;;;;;;;;;;;;;;25.41;48.24;100565.03;4447653;32;33677;-79
2023/05/19 08:52:19;;;;;;;;;;;;;;;24.93;47.83;100568.66;4429662;32;33940;-79
2023/05/19 08:54:59;;;;;;;;;;;;;;;26.97;42.70;100567.53;4436931;32;33930;-80
2023/05/19 08:57:27;;;;;;;4.35;2.85;;;;;;;27.33;41.21;100565.38;4435508;32;33831;-81
2023/05/19 08:59:55;;;;;;;;;;;;;;;26.22;41.51;100561.06;4426437;32;34095;-80
2023/05/19 09:02:23;;;;;;;;;;;;;;;22.21;55.01;100559.56;4443093;32;33962;-81
2023/05/19 09:04:50;;;;;;;;;;;;;;;22.43;54.37;100555.41;4452722;32;34221;-79
2023/05/19 09:07:18;;;;;;;;;;;;;;;21.63;55.99;100559.84;4435850;32;34981;-80
2023/05/19 09:09:45;;;;;;;;;;;;;;;22.49;55.89;100571.28;4429670;32;34027;-81
2023/05/19 09:12:12;;;;;;;;;;;;;;;22.36;53.32;100564.12;4443698;32;33961;-81
2023/05/19 09:14:40;;;;;;;;;;;;;;;22.64;52.79;100556.44;4439320;32;34835;-81
2023/05/19 09:17:07;;;;;;;;;;;;;;;21.63;57.14;100558.97;4444743;32;34421;-81
2023/05/19 09:19:35;;;;;;;;;;;;;;;22.79;54.72;100553.91;4427645;32;33514;-80
2023/05/19 09:22:03;;;;;;;;;;;;;;;23.72;51.47;100561.47;4450210;32;34080;-82
2023/05/19 09:24:30;;;;;;;;;;;;;;;22.47;56.33;100559.84;4435354;32;34291;-80
2023/05/19 09:26:57;;;;;;;;;;;;;;;22.12;54.90;100563.00;4446564;32;35118;-80
2023/05/19 09:29:26;;;;;;;;;;;;;;;21.70;56.99;100561.69;4448522;32;34222;-80
2023/05/19 09:31:59;;;;;;;;;;;;;;;21.00;58.15;100557.25;4439154;32;33949;-81
2023/05/19 09:34:29;;;;;;;;;;;;;;;23.75;51.96;100555.28;4447450;32;33742;-81
2023/05/19 09:36:58;;;;;;;;;;;;;;;24.04;50.03;100547.44;4445002;32;34716;-81
2023/05/19 09:39:27;;;;;;;;;;;;;;;24.70;48.32;100550.13;4425390;32;33409;-79
2023/05/19 09:41:57;;;;;;;;;;;;;;;26.12;45.10;100548.75;4440899;32;33919;-80
2023/05/19 09:44:29;;;;;;;;;;;;;;;24.56;46.34;100545.75;4435568;32;33860;-80
2023/05/19 09:46:57;;;;;;;;;;;;;;;23.40;52.83;100555.19;4432412;32;34801;-79
2023/05/19 09:49:25;;;;;;;;;;;;;;;23.52;51.59;100547.28;4450773;32;34333;-80
2023/05/19 09:51:56;;;;;;;;;;;;;;;23.63;52.96;100544.69;4428291;32;33594;-80
2023/05/19 09:54:24;;;;;;;;;;;;;;;23.99;52.58;100538.63;4427926;32;34532;-79
2023/05/19 09:56:57;;;;;;;;;;;;;;;25.53;48.73;100533.13;4423129;32;34760;-81
2023/05/19 09:59:25;;;;;;;;;;;;;;;26.39;45.79;100532.59;4445818;32;33701;-80
2023/05/19 10:01:57;;;;;;;;;;;;;;;24.86;46.12;100519.22;4444903;32;34345;-79
2023/05/19 10:04:25;;;;;;;;;;;;;;;25.26;48.96;100520.88;4435630;32;33089;-80
2023/05/19 10:06:53;;;;;;;;;;;;;;;26.27;45.59;100511.47;4423187;32;33964;-79
2023/05/19 10:09:21;;;;;;;;;;;;;;;26.41;43.65;100514.87;4444278;32;34244;-79
2023/05/19 10:11:50;;;;;;;;;;;;;;;24.51;51.10;100506.91;4426518;32;34901;-80
2023/05/19 10:14:18;;;;;;;;;;;;;;;25.04;48.84;100512.97;4419876;32;33611;-80
2023/05/19 10:16:45;;;;;;;;;;;;;;;26.52;45.54;100511.22;4430597;32;34411;-80
2023/05/19 10:19:13;;;;;;;;;;;;;;;27.69;42.72;100505.47;4435433;32;34257;-79
2023/05/19 10:21:40;;;;;;;;;;;;;;;27.35;41.30;100500.63;4432273;32;34268;-79
2023/05/19 10:24:07;;;;;;;;;;;;;;;26.95;41.71;100508.19;4434008;32;33794;-80
2023/05/19 10:26:38;;;;;;;;;;;;;;;26.57;42.75;100504.97;4429149;32;33116;-81
2023/05/19 10:29:05;;;;;;;;;;;;;;;27.65;39.81;100509.94;4427164;32;33325;-80
2023/05/19 10:31:33;;;;;;;;;;;;;;;27.38;41.14;100505.88;4431848;32;34799;-81
2023/05/19 10:34:00;;;;;;;;;;;;;;;27.73;41.03;100495.66;4426272;32;34875;-81
2023/05/19 10:36:31;;;;;;;;;;;;;;;27.88;41.12;100490.12;4436973;32;35054;-81
2023/05/19 10:39:15;;;;;;;;;;;;;;;28.41;39.90;100490.12;4423593;32;34064;-80
2023/05/19 10:41:46;;;;;;;;;;;;;;;27.75;41.57;100494.72;4428536;32;32708;-80
2023/05/19 10:44:13;;;;;;;;;;;;;;;27.20;41.13;100496.34;4439537;32;34317;-81
2023/05/19 10:46:41;;;;;;;;;;;;;;;28.28;38.96;100489.50;4449173;32;34460;-80
2023/05/19 10:49:09;;;;;;;;;;;;;;;28.33;39.11;100486.75;4432162;32;33979;-80
2023/05/19 10:51:36;;;;;;;;;;;;;;;28.74;41.31;100482.47;4425499;32;32661;-79
2023/05/19 10:54:08;;;;;;;;;;;;;;;29.02;39.07;100482.81;4440911;32;34274;-80
2023/05/19 10:56:41;;;;;;;;;;;;;;;28.73;38.05;100478.94;4450463;32;34867;-81
2023/05/19 10:59:08;;;;;;;;;;;;;;;29.40;37.18;100478.50;4429678;32;34361;-80
2023/05/19 11:01:37;;;;;;;;;;;;;;;27.47;40.54;100470.31;4433405;32;34817;-81
2023/05/19 11:04:05;;;;;;;;;;;;;;;26.58;41.61;100468.66;4443044;32;33996;-80
2023/05/19 11:06:36;;;;;;;;;;;;;;;28.13;40.23;100463.13;4435238;32;34807;-81
2023/05/19 11:09:11;;;;;;;;;;;;;;;27.92;40.99;100464.34;4441949;32;34114;-80
2023/05/19 11:11:51;;;;;;;;;;;;;;;28.65;38.40;100462.22;4443705;32;33865;-82
2023/05/19 11:14:20;;;;;;;;;;;;;;;29.50;36.35;100464.00;4422724;32;33113;-80
2023/05/19 11:16:48;;;;;;;;;;;;;;;29.93;35.80;100459.47;4440661;32;34056;-79
2023/05/19 11:19:25;;;;;;;;;;;;;;;29.06;35.61;100460.50;4419795;32;33327;-79
2023/05/19 11:21:56;;;;;;;;;;;;;;;29.43;35.24;100457.06;4415071;32;33451;-80
2023/05/19 11:24:55;;;;;;;;;;;;;;;29.32;36.38;100465.31;4450128;32;33749;-81
2023/05/19 11:27:30;;;;;;;;;;;;;;;29.06;35.68;100457.81;4414591;32;34436;-80
2023/05/19 11:30:05;;;;;;;;;;;;;;;30.47;34.60;100453.66;4427072;32;32252;-79
2023/05/19 11:32:33;;;;;;;;;;;;;;;28.35;36.93;100453.81;4443206;32;34650;-79
2023/05/19 11:35:01;;;;;;;;;;;;;;;29.76;35.84;100454.53;4431246;32;34006;-79
2023/05/19 11:37:33;;;;;;;;;;;;;;;30.01;34.59;100448.59;4444630;32;34182;-78
2023/05/19 11:40:01;;;;;;;;;;;;;;;29.98;34.94;100450.44;4444949;32;33268;-78
2023/05/19 11:42:28;;;;;;;;;;;;;;;30.22;34.28;100458.75;4444406;32;34304;-79
2023/05/19 11:44:55;;;;;;;;;;;;;;;29.43;34.01;100450.84;4421801;32;33912;-79
2023/05/19 11:47:23;;;;;;;;;;;;;;;30.44;33.39;100455.53;4441626;32;33835;-79
2023/05/19 11:49:53;;;;;;;;;;;;;;;30.15;34.10;100454.47;4427635;32;33598;-80
2023/05/19 11:52:21;;;;;;;;;;;;;;;29.80;34.62;100461.56;4441392;32;34284;-80
2023/05/19 11:54:49;;;;;;;;;;;;;;;28.57;37.68;100458.81;4429634;32;34100;-80
2023/05/19 11:57:16;;;;;;;;;;;;;;;28.98;32.64;100465.13;4433507;32;33306;-80
2023/05/19 11:59:46;;;;;;;;;;;;;;;29.86;32.89;100466.75;4429204;32;32913;-80
2023/05/19 12:02:14;;;;;;;;;;;;;;;30.46;32.05;100454.59;4438610;32;34307;-79
2023/05/19 12:04:41;;;;;;;;;;;;;;;30.24;32.53;100456.91;4448178;32;34229;-80
2023/05/19 12:07:12;;;;;;;;;;;;;;;30.22;31.73;100455.19;4446420;32;34296;-80
2023/05/19 12:09:39;;;;;;;;;;;;;;;30.41;33.23;100452.97;4439675;32;33554;-80
2023/05/19 12:12:07;;;;;;;;;;;;;;;30.59;31.83;100447.09;4437513;32;33693;-79
2023/05/19 12:14:34;;;;;;;;;;;;;;;29.85;35.18;100443.66;4434388;32;34627;-80
2023/05/19 12:17:15;;;;;;;;;;;;;;;29.93;34.02;100440.78;4448774;32;34724;-80
2023/05/19 12:19:43;;;;;;;;;;;;;;;30.09;34.17;100441.25;4422453;32;31452;-80
2023/05/19 12:22:10;;;;;;;;;;;;;;;29.83;33.81;100434.78;4441518;32;33050;-80
2023/05/19 12:24:38;;;;;;;;;;;;;;;32.09;28.66;100428.28;4448975;32;34184;-80
2023/05/19 12:27:13;;;;;;;;;;;;;;;31.50;29.34;100426.59;4417120;32;34413;-81
2023/05/19 12:29:40;;;;;;;;;;;;;;;30.73;32.66;100422.63;4431230;32;33946;-81
2023/05/19 12:32:08;;;;;;;;;;;;;;;30.46;31.91;100429.63;4441427;32;34756;-81
2023/05/19 12:34:36;;;;;;;;;;;;;;;30.43;32.25;100413.69;4447621;32;34338;-80
2023/05/19 12:37:03;;;;;;;;;;;;;;;29.48;34.74;100407.13;4441838;32;34144;-80
2023/05/19 12:39:31;;;;;;;;;;;;;;;29.53;34.08;100405.19;4411231;32;33532;-80
2023/05/19 12:42:08;;;;;;;;;;;;;;;29.54;33.75;100396.28;4429368;32;34514;-78